Airfield :
LOGIN :

Register | Disclaimer

   EN    FR    IT 

 










Legend :    VFR   Marginal VFR   IFR   Intensive IFR   Very Intensive IFR
Visi :
Ceiling :
>= 8 km
>= 3000ft
5 to 8 km
1000 to 3000 ft
1500m to 5 km
500 to 1000 ft
800 to 1500m
200 to 500 ft
< 800m
< 200 ft
Symbols :   Thunderstorms  Fog  Heavy snow  Heavy precipitations  Wind > 20 kt
SIGMETs :     Misc.  Thunderstorms  Icing  Turbulence  Mountain Waves  Volcanic Ashes






- Airport Elevation : 468 ft
- IATA code : GRO


LEGE - Girona Costa Brava

CURRENT METAR :
  • 121530Z 19011KT 140V230 9999 FEW040 32/18 Q1011

EXPIRED METARs :
  • 121500Z 17012KT 140V210 9999 FEW040 32/19 Q1012
  • 121430Z 17013KT 140V220 9999 FEW040 32/21 Q1012
  • 121400Z 17012KT 130V210 9999 FEW050 32/19 Q1012
  • 121330Z 17010KT 120V220 9999 FEW050 32/18 Q1013
  • 121300Z 18009KT 150V240 9999 FEW050 32/20 Q1013

TAF TAF LEGE
Valid from the 12 at 12:00 until the 13 at 12:00 UTC


121100Z 1212/1312 18015KT 9999 FEW010 TX33/1213Z TN20/1306Z
TEMPO 1212/1216 FEW030CB
TEMPO 1212/1218 18015G25KT
BECMG 1221/1223 VRB04KT



MET'MAP, your aeronautical weather chart ! - Copyright ORBIFLY December 2007 - Disclaimer

ORBIFLY MET'MAP TEAM :

Programming & Development : Alexandra Zaïnal
Concept & original design : Baudouin d'Aumeries
Assistance for programming : Marc-Olivier Méhu
Technical & hardware support : Manuel Goepfert

Contact : metmap@orbifly.com




SOURCES & CREDITS :

   NOAA